Time;durP1;ratioP1;P1;durP2;ratioP2;P2;SDS_P1;SDS_P2;PMS_P1;PMS_P2;Temp;Humidity;BMP_temperature;BMP_pressure;BME280_temperature;BME280_humidity;BME280_pressure;Samples;Min_cycle;Max_cycle;Signal;HPM_P1;HPM_P2
2023/04/18 06:42:51;;;;;;;7.57;6.25;;;6.00;99.90;;;;;;5020051;28;20100;-87
2023/04/18 06:50:11;;;;;;;10.35;6.43;;;7.80;99.90;;;;;;5002796;28;20072;-87
2023/04/18 07:04:21;;;;;;;7.75;5.78;;;7.90;99.90;;;;;;4998083;28;20052;-82
2023/04/18 07:22:31;;;;;;;8.10;6.07;;;8.10;99.90;;;;;;5003932;28;20045;-89
2023/04/18 07:29:26;;;;;;;9.55;5.85;;;8.20;99.90;;;;;;4997263;28;20044;-84
2023/04/18 07:31:52;;;;;;;8.88;6.45;;;8.20;99.90;;;;;;4973692;28;20763;-87
2023/04/18 07:34:17;;;;;;;9.05;5.72;;;8.30;99.90;;;;;;4990423;28;20074;-84
2023/04/18 07:36:43;;;;;;;8.10;5.55;;;8.30;99.90;;;;;;4981047;28;20512;-82
2023/04/18 07:39:09;;;;;;;10.88;6.40;;;8.30;99.90;;;;;;4990768;28;20084;-82
2023/04/18 07:41:35;;;;;;;8.27;6.43;;;10.70;99.90;;;;;;4970472;28;20755;-82
2023/04/18 07:44:01;;;;;;;11.13;6.78;;;8.40;99.90;;;;;;5012613;28;20152;-83
2023/04/18 07:46:27;;;;;;;11.15;6.35;;;9.00;99.90;;;;;;4987376;28;20054;-83
2023/04/18 07:48:53;;;;;;;8.50;5.95;;;8.50;99.90;;;;;;5011214;28;20140;-83
2023/04/18 07:51:18;;;;;;;8.02;6.63;;;10.30;99.90;;;;;;4990069;28;20128;-81
2023/04/18 07:53:46;;;;;;;7.85;6.00;;;11.10;99.90;;;;;;5004039;28;20060;-83
2023/04/18 07:56:13;;;;;;;10.35;6.50;;;8.50;99.90;;;;;;4997790;28;20425;-83
2023/04/18 07:58:45;;;;;;;9.68;6.95;;;8.60;99.90;;;;;;5006651;28;20115;-83
2023/04/18 08:01:14;;;;;;;8.27;6.57;;;8.60;99.90;;;;;;5003841;28;20038;-84
2023/04/18 08:03:39;;;;;;;12.90;6.47;;;8.80;99.90;;;;;;5021788;28;20663;-85
2023/04/18 08:06:05;;;;;;;9.85;6.43;;;10.70;99.90;;;;;;4991613;28;20860;-85
2023/04/18 08:08:31;;;;;;;12.93;6.93;;;8.70;99.90;;;;;;5023847;28;20136;-87
2023/04/18 08:10:57;;;;;;;10.85;6.95;;;10.10;99.90;;;;;;5026972;28;20378;-86
2023/04/18 08:13:22;;;;;;;6.57;5.88;;;11.10;99.90;;;;;;5021305;28;20049;-86
2023/04/18 08:15:48;;;;;;;9.27;5.68;;;10.10;99.90;;;;;;5003545;28;20064;-84
2023/04/18 08:18:13;;;;;;;11.02;6.30;;;8.50;99.90;;;;;;5024499;28;20053;-84
2023/04/18 08:20:39;;;;;;;10.93;6.45;;;11.20;99.90;;;;;;5023116;28;20091;-85
2023/04/18 08:23:06;;;;;;;8.57;7.03;;;9.00;99.90;;;;;;5006864;28;20134;-84
2023/04/18 08:25:32;;;;;;;9.52;6.55;;;8.90;99.90;;;;;;5001966;28;20199;-83
2023/04/18 08:27:57;;;;;;;6.70;6.00;;;9.10;99.90;;;;;;4987841;28;20545;-83
2023/04/18 08:30:23;;;;;;;9.80;6.05;;;9.60;99.90;;;;;;5023352;28;20038;-85
2023/04/18 08:32:50;;;;;;;10.75;6.13;;;9.20;99.90;;;;;;5005808;28;20401;-85
2023/04/18 08:35:15;;;;;;;9.75;6.60;;;9.20;99.90;;;;;;5002085;28;20125;-83
2023/04/18 08:37:42;;;;;;;6.35;5.68;;;9.30;99.90;;;;;;5019836;28;20467;-82
2023/04/18 08:40:08;;;;;;;9.00;6.53;;;10.70;99.90;;;;;;5007595;28;20060;-84
2023/04/18 08:42:34;;;;;;;9.98;6.55;;;9.40;99.90;;;;;;4994140;28;20037;-84
2023/04/18 08:45:00;;;;;;;8.38;6.28;;;9.50;99.90;;;;;;5005365;28;20139;-85
2023/04/18 08:47:29;;;;;;;10.38;5.97;;;9.60;99.90;;;;;;5005043;28;20526;-84
2023/04/18 08:49:56;;;;;;;7.45;5.63;;;12.20;99.90;;;;;;5004609;28;20152;-83
2023/04/18 08:52:22;;;;;;;9.60;6.32;;;9.60;99.90;;;;;;4986043;28;20137;-83
2023/04/18 08:54:51;;;;;;;10.15;7.05;;;9.70;99.90;;;;;;5001480;28;20473;-86
2023/04/18 08:57:28;;;;;;;10.15;6.07;;;9.40;99.90;;;;;;5005574;28;20077;-84
2023/04/18 09:00:01;;;;;;;10.32;6.28;;;9.70;99.90;;;;;;5022217;28;20049;-85
2023/04/18 09:02:41;;;;;;;9.35;6.57;;;9.80;99.90;;;;;;4985266;28;20056;-85
2023/04/18 09:05:15;;;;;;;10.20;6.72;;;9.90;99.90;;;;;;4988326;28;20053;-85
2023/04/18 09:07:41;;;;;;;13.20;7.15;;;9.90;99.90;;;;;;5005452;28;20058;-82
2023/04/18 09:10:08;;;;;;;9.93;6.22;;;10.50;99.90;;;;;;5004131;28;20054;-81
2023/04/18 09:12:41;;;;;;;8.48;7.07;;;10.00;99.90;;;;;;5005214;28;20075;-81
2023/04/18 09:15:13;;;;;;;8.77;6.68;;;10.00;99.90;;;;;;5000124;28;20049;-83
2023/04/18 09:17:42;;;;;;;7.30;6.57;;;10.00;99.90;;;;;;5022558;28;20422;-81
2023/04/18 09:20:09;;;;;;;10.73;6.70;;;11.80;99.90;;;;;;5020567;28;20132;-81
2023/04/18 09:23:13;;;;;;;8.13;6.18;;;10.10;99.90;;;;;;4984432;28;20092;-82
2023/04/18 09:25:45;;;;;;;9.88;6.85;;;10.20;99.90;;;;;;5019265;28;20050;-82
2023/04/18 09:28:31;;;;;;;8.57;6.22;;;12.50;99.90;;;;;;5022249;28;20100;-83
2023/04/18 09:31:12;;;;;;;12.93;7.20;;;10.40;99.90;;;;;;5020169;28;20045;-82
2023/04/18 09:33:42;;;;;;;14.20;8.40;;;10.40;99.90;;;;;;5005062;28;20370;-82
2023/04/18 09:36:19;;;;;;;15.18;6.80;;;10.40;99.90;;;;;;5021140;28;20049;-82
2023/04/18 09:38:46;;;;;;;10.75;6.50;;;10.50;99.90;;;;;;5019578;28;20591;-82
2023/04/18 09:41:14;;;;;;;9.70;6.97;;;12.40;99.90;;;;;;5022305;28;20391;-81
2023/04/18 09:43:40;;;;;;;9.63;6.80;;;10.80;99.90;;;;;;5021708;28;20058;-82
2023/04/18 09:46:07;;;;;;;7.18;6.45;;;10.60;99.90;;;;;;5021792;28;20060;-82
2023/04/18 09:48:33;;;;;;;12.30;7.50;;;11.90;99.90;;;;;;5018909;28;20042;-81
2023/04/18 09:51:04;;;;;;;9.73;6.93;;;13.10;99.90;;;;;;5000793;28;20050;-81
2023/04/18 09:53:30;;;;;;;10.35;6.30;;;10.70;99.90;;;;;;5025379;28;20069;-81
2023/04/18 09:55:56;;;;;;;11.45;6.63;;;10.80;99.90;;;;;;5026453;28;20049;-81
2023/04/18 09:58:26;;;;;;;9.30;6.40;;;13.20;99.90;;;;;;5018567;28;20101;-82
2023/04/18 10:00:53;;;;;;;9.13;6.30;;;13.50;99.90;;;;;;5001557;28;20049;-83
2023/04/18 10:03:25;;;;;;;8.82;6.38;;;10.90;99.90;;;;;;5025480;28;20116;-81
2023/04/18 10:05:51;;;;;;;11.10;6.32;;;13.00;99.90;;;;;;5022388;28;20053;-82
2023/04/18 10:08:17;;;;;;;8.93;7.10;;;11.00;99.90;;;;;;5021225;28;20124;-81
2023/04/18 10:10:43;;;;;;;9.20;6.53;;;12.50;99.90;;;;;;5004622;28;20088;-82
2023/04/18 10:13:12;;;;;;;13.13;6.38;;;11.10;99.90;;;;;;5019567;28;20041;-83
2023/04/18 10:15:38;;;;;;;9.48;6.55;;;11.10;99.90;;;;;;5002280;28;20062;-84
2023/04/18 10:18:15;;;;;;;7.97;6.40;;;11.10;99.90;;;;;;5026394;28;20135;-84
2023/04/18 10:20:40;;;;;;;11.98;6.22;;;13.30;99.90;;;;;;5018113;28;20054;-86
2023/04/18 10:23:33;;;;;;;11.02;6.65;;;13.50;99.90;;;;;;5019717;28;20076;-84
2023/04/18 10:25:59;;;;;;;8.88;6.97;;;11.30;99.90;;;;;;5003103;28;20088;-84
2023/04/18 10:28:26;;;;;;;9.10;7.45;;;11.40;99.90;;;;;;4984170;28;20556;-85
2023/04/18 10:31:10;;;;;;;7.78;6.97;;;13.30;99.90;;;;;;5001386;28;20096;-86
2023/04/18 10:33:41;;;;;;;7.40;6.57;;;11.50;99.90;;;;;;4976162;28;20076;-86
2023/04/18 10:36:12;;;;;;;8.43;7.13;;;11.50;99.90;;;;;;5003988;28;20524;-86
2023/04/18 10:38:44;;;;;;;9.13;6.80;;;12.70;99.90;;;;;;5003521;28;20049;-84
2023/04/18 10:41:22;;;;;;;10.85;6.78;;;12.70;99.90;;;;;;5002631;28;20097;-86
2023/04/18 10:44:24;;;;;;;11.18;6.68;;;11.80;99.90;;;;;;4984312;28;20057;-82
2023/04/18 10:46:50;;;;;;;9.50;6.47;;;11.80;99.90;;;;;;4938935;29;20080;-86
2023/04/18 10:49:19;;;;;;;8.13;6.38;;;12.60;99.90;;;;;;5006549;28;20058;-83
2023/04/18 10:51:50;;;;;;;8.55;6.03;;;12.00;99.90;;;;;;4988005;28;20137;-86
2023/04/18 10:54:27;;;;;;;6.70;5.35;;;12.10;99.90;;;;;;5002410;28;20552;-84
2023/04/18 10:56:55;;;;;;;7.53;5.35;;;12.20;99.90;;;;;;5004946;28;20552;-82
2023/04/18 10:59:25;;;;;;;12.95;8.00;;;12.20;99.90;;;;;;5002328;28;20041;-82
2023/04/18 11:02:10;;;;;;;7.70;6.47;;;12.20;99.90;;;;;;4988769;28;20052;-83
2023/04/18 11:04:36;;;;;;;7.40;4.88;;;14.50;99.90;;;;;;5000122;28;20080;-84
2023/04/18 11:07:02;;;;;;;7.22;5.32;;;14.50;99.90;;;;;;5017326;28;20042;-84
2023/04/18 11:09:27;;;;;;;6.13;5.53;;;13.30;99.90;;;;;;5000760;28;20076;-83
2023/04/18 11:12:08;;;;;;;6.57;5.28;;;12.70;99.90;;;;;;4987254;28;20033;-88
2023/04/18 11:14:44;;;;;;;5.85;4.85;;;12.80;99.90;;;;;;5014927;28;20053;-86
2023/04/18 11:17:22;;;;;;;7.13;5.82;;;12.60;99.90;;;;;;5015041;28;20053;-88
2023/04/18 11:19:57;;;;;;;5.70;5.00;;;12.80;99.90;;;;;;5012253;28;20056;-87
2023/04/18 11:22:23;;;;;;;6.10;4.55;;;14.60;99.90;;;;;;5018102;28;20049;-88
2023/04/18 11:24:49;;;;;;;7.10;5.47;;;14.00;99.90;;;;;;5007287;28;20231;-89
2023/04/18 11:27:15;;;;;;;7.20;5.47;;;15.50;99.90;;;;;;5003384;28;20083;-90
2023/04/18 11:29:41;;;;;;;6.97;5.07;;;14.00;99.90;;;;;;5018889;28;20544;-90
2023/04/18 11:32:08;;;;;;;5.57;5.05;;;15.90;99.90;;;;;;5017842;28;20057;-90
2023/04/18 11:34:34;;;;;;;8.10;5.43;;;13.70;99.90;;;;;;4988950;28;20054;-89
2023/04/18 11:37:00;;;;;;;5.80;5.20;;;14.70;99.90;;;;;;5003355;28;20038;-91
2023/04/18 11:39:26;;;;;;;5.82;5.28;;;13.90;99.90;;;;;;5013221;28;20328;-91
2023/04/18 11:41:55;;;;;;;7.20;5.50;;;16.00;99.90;;;;;;4986309;28;20500;-89
2023/04/18 11:44:25;;;;;;;6.85;5.55;;;14.00;99.90;;;;;;5002372;28;20493;-85
2023/04/18 11:46:54;;;;;;;9.65;6.20;;;16.00;99.90;;;;;;4988630;28;20045;-90
2023/04/18 11:49:31;;;;;;;5.85;5.35;;;14.50;99.90;;;;;;4986537;28;20411;-86
2023/04/18 11:52:00;;;;;;;8.68;5.47;;;14.10;99.90;;;;;;5019582;28;20053;-90
2023/04/18 11:54:43;;;;;;;8.85;5.25;;;14.20;99.90;;;;;;4990433;28;20099;-88
2023/04/18 11:57:39;;;;;;;5.63;5.00;;;14.40;99.90;;;;;;4989433;28;20061;-93
2023/04/18 12:00:06;;;;;;;7.30;4.80;;;14.80;99.90;;;;;;4986206;28;20104;-86
2023/04/18 12:02:44;;;;;;;6.05;5.30;;;14.50;99.90;;;;;;5021567;28;20061;-91
2023/04/18 12:05:13;;;;;;;4.95;4.38;;;14.80;99.90;;;;;;4984987;28;20060;-89
2023/04/18 12:07:41;;;;;;;5.82;4.80;;;16.60;99.90;;;;;;5009840;28;20381;-88
2023/04/18 12:10:22;;;;;;;5.30;4.78;;;14.70;99.90;;;;;;5006288;28;20062;-90
2023/04/18 12:12:58;;;;;;;8.40;5.10;;;15.00;99.90;;;;;;5041935;28;20053;-86
2023/04/18 12:15:26;;;;;;;7.32;4.80;;;14.90;99.90;;;;;;5027190;28;20113;-88
2023/04/18 12:18:13;;;;;;;7.00;4.07;;;15.10;99.90;;;;;;5003206;28;20057;-89
2023/04/18 12:20:53;;;;;;;5.18;3.92;;;16.40;99.90;;;;;;5006802;28;20048;-90
2023/04/18 12:23:34;;;;;;;4.57;4.00;;;15.10;99.90;;;;;;5009578;28;20053;-87
2023/04/18 12:26:10;;;;;;;7.28;3.83;;;15.10;99.90;;;;;;5008530;28;20202;-88
2023/04/18 12:28:36;;;;;;;3.80;3.47;;;15.20;99.90;;;;;;5024525;28;20103;-93
2023/04/18 12:31:27;;;;;;;4.90;3.28;;;16.50;99.90;;;;;;4989615;28;20077;-89
2023/04/18 12:33:58;;;;;;;3.30;2.85;;;15.40;99.90;;;;;;5001411;28;20129;-90
2023/04/18 12:36:29;;;;;;;3.47;2.55;;;16.30;99.90;;;;;;5009360;28;20054;-91
2023/04/18 12:38:56;;;;;;;4.15;2.58;;;14.10;99.90;;;;;;5011197;28;20053;-89
2023/04/18 12:41:22;;;;;;;2.92;2.63;;;17.30;99.90;;;;;;5034797;28;20045;-90
2023/04/18 12:43:48;;;;;;;4.18;2.63;;;15.90;99.90;;;;;;5015163;28;20042;-95
2023/04/18 12:46:13;;;;;;;3.58;2.38;;;16.00;99.90;;;;;;5031625;28;20057;-95
2023/04/18 12:48:39;;;;;;;3.53;2.85;;;17.70;99.90;;;;;;4990862;28;20050;-92
2023/04/18 12:51:05;;;;;;;3.03;2.83;;;16.00;99.90;;;;;;5008079;28;20049;-94
2023/04/18 12:53:39;;;;;;;4.43;2.60;;;;;;;;;;5028953;28;20052;-94
2023/04/18 12:56:05;;;;;;;3.38;2.85;;;16.00;99.90;;;;;;4995901;28;20480;-92
2023/04/18 12:58:31;;;;;;;6.53;2.65;;;15.90;99.90;;;;;;5019964;28;20061;-91
2023/04/18 13:00:58;;;;;;;2.97;2.78;;;;;;;;;;5025197;28;20041;-92
2023/04/18 13:03:27;;;;;;;2.65;2.45;;;15.90;99.80;;;;;;5020634;28;20045;-88
2023/04/18 13:05:53;;;;;;;3.90;2.80;;;16.10;99.90;;;;;;5022428;28;20084;-91
2023/04/18 13:08:18;;;;;;;2.97;2.78;;;16.60;99.90;;;;;;5000854;28;20493;-85
2023/04/18 13:10:46;;;;;;;4.57;3.35;;;16.90;99.90;;;;;;5007017;28;20497;-94
2023/04/18 13:13:11;;;;;;;3.00;2.78;;;18.10;99.90;;;;;;4990255;28;20093;-93
2023/04/18 13:15:37;;;;;;;3.47;3.20;;;16.20;99.90;;;;;;4974817;28;20105;-89
2023/04/18 13:18:04;;;;;;;3.30;2.47;;;16.10;99.90;;;;;;4986242;28;20045;-88
2023/04/18 13:20:31;;;;;;;2.72;2.53;;;16.90;99.90;;;;;;4991017;28;20046;-83
2023/04/18 13:22:57;;;;;;;2.70;2.45;;;16.90;99.90;;;;;;4997037;28;20496;-84
2023/04/18 13:25:23;;;;;;;2.95;2.72;;;16.10;99.90;;;;;;5010816;28;20045;-84
2023/04/18 13:27:51;;;;;;;4.47;2.95;;;16.30;99.90;;;;;;5017580;28;20109;-90
2023/04/18 13:30:17;;;;;;;3.28;2.75;;;16.40;99.90;;;;;;4990671;28;20483;-91
2023/04/18 13:32:42;;;;;;;5.57;2.67;;;16.30;99.80;;;;;;4987364;28;20137;-90
2023/04/18 13:35:09;;;;;;;3.80;2.83;;;18.60;99.90;;;;;;4987233;28;20395;-93
2023/04/18 13:37:36;;;;;;;3.15;2.80;;;16.10;99.60;;;;;;4988344;28;20080;-87
2023/04/18 13:40:05;;;;;;;3.85;3.08;;;16.10;99.90;;;;;;4991377;28;20049;-88
2023/04/18 13:42:32;;;;;;;3.22;2.90;;;16.20;99.80;;;;;;4967330;28;20568;-91
2023/04/18 13:44:58;;;;;;;3.47;2.78;;;17.80;99.90;;;;;;5004779;28;20049;-89
2023/04/18 13:47:24;;;;;;;4.30;2.92;;;16.30;99.60;;;;;;4977913;28;20045;-90
2023/04/18 13:49:50;;;;;;;4.45;3.45;;;16.40;99.60;;;;;;5026705;28;20054;-91
2023/04/18 13:52:16;;;;;;;3.30;3.03;;;16.40;99.60;;;;;;4989449;28;20060;-94
2023/04/18 13:54:52;;;;;;;3.25;2.95;;;17.90;99.90;;;;;;4993976;28;20053;-90
2023/04/18 13:57:20;;;;;;;3.65;3.30;;;;;;;;;;4990924;28;20057;-91
2023/04/18 13:59:46;;;;;;;3.15;2.88;;;;;;;;;;4997694;28;20046;-89
2023/04/18 14:02:12;;;;;;;5.47;3.38;;;16.30;98.50;;;;;;5015784;28;20080;-89
2023/04/18 14:04:38;;;;;;;2.90;2.70;;;;;;;;;;5008816;28;20135;-87
2023/04/18 14:07:05;;;;;;;7.97;3.20;;;16.20;98.50;;;;;;4988073;28;20049;-86
2023/04/18 14:09:31;;;;;;;4.00;3.10;;;16.20;99.40;;;;;;5023057;28;20270;-88
2023/04/18 14:12:02;;;;;;;4.30;3.05;;;16.10;99.90;;;;;;5011105;28;20811;-89
2023/04/18 14:14:27;;;;;;;5.18;2.97;;;18.30;99.60;;;;;;5011637;28;20053;-86
2023/04/18 14:16:53;;;;;;;3.55;3.03;;;17.80;99.30;;;;;;4989615;28;20132;-89
2023/04/18 14:19:21;;;;;;;5.07;3.08;;;16.20;99.50;;;;;;4985575;28;20128;-87
2023/04/18 14:21:47;;;;;;;4.35;2.83;;;16.30;99.70;;;;;;4997908;28;20053;-87
2023/04/18 14:24:13;;;;;;;3.60;3.15;;;;;;;;;;5012142;28;20084;-89
2023/04/18 14:26:39;;;;;;;5.70;3.70;;;16.10;98.10;;;;;;5016289;28;20483;-89
2023/04/18 14:29:05;;;;;;;3.65;3.33;;;16.40;99.10;;;;;;5015564;28;20053;-89
2023/04/18 14:31:30;;;;;;;6.47;3.72;;;16.10;98.60;;;;;;5026851;28;20480;-88
2023/04/18 14:33:56;;;;;;;4.15;3.70;;;;;;;;;;4991851;28;20049;-90
2023/04/18 14:36:26;;;;;;;6.60;3.70;;;16.10;98.00;;;;;;5015184;28;20041;-91
2023/04/18 14:38:53;;;;;;;6.15;4.32;;;16.50;99.20;;;;;;4997002;28;20132;-90
2023/04/18 14:41:19;;;;;;;6.72;4.75;;;18.20;99.30;;;;;;4987471;28;20144;-89
2023/04/18 14:43:45;;;;;;;4.57;4.18;;;16.00;98.80;;;;;;5003407;28;20101;-89
2023/04/18 14:46:12;;;;;;;7.22;5.80;;;14.30;98.80;;;;;;4993348;28;20117;-87
2023/04/18 14:48:43;;;;;;;8.90;5.97;;;16.50;99.00;;;;;;4989103;28;20048;-87
2023/04/18 14:51:09;;;;;;;7.38;5.55;;;16.10;98.90;;;;;;4985738;28;20136;-88
2023/04/18 14:53:36;;;;;;;8.77;5.63;;;15.90;99.00;;;;;;4980411;28;20132;-86
2023/04/18 14:56:01;;;;;;;9.38;5.20;;;16.50;99.10;;;;;;5010210;28;20053;-87
2023/04/18 14:58:27;;;;;;;5.88;5.28;;;16.60;99.20;;;;;;4978253;28;20134;-87
2023/04/18 15:00:52;;;;;;;6.03;5.43;;;15.70;99.10;;;;;;5024013;28;20060;-87
2023/04/18 15:03:18;;;;;;;7.07;5.90;;;15.60;99.30;;;;;;4987299;28;20091;-83
2023/04/18 15:05:47;;;;;;;7.35;5.30;;;15.60;99.70;;;;;;5019454;28;20057;-88
2023/04/18 15:08:14;;;;;;;5.30;4.80;;;15.50;99.90;;;;;;4983048;28;20042;-84
2023/04/18 15:10:45;;;;;;;7.70;4.53;;;15.30;99.70;;;;;;4973912;28;20064;-83
2023/04/18 15:13:10;;;;;;;6.20;5.13;;;15.10;99.70;;;;;;5003511;28;20060;-84
2023/04/18 15:15:39;;;;;;;6.00;5.00;;;14.90;99.90;;;;;;4984308;28;20057;-82
2023/04/18 15:18:06;;;;;;;5.03;4.53;;;16.20;99.90;;;;;;5002569;28;20053;-85
2023/04/18 15:20:33;;;;;;;5.80;4.30;;;16.30;99.90;;;;;;5020584;28;20049;-86
2023/04/18 15:23:01;;;;;;;6.65;4.95;;;16.80;99.90;;;;;;5008131;28;20042;-82
2023/04/18 15:25:29;;;;;;;7.15;6.45;;;16.70;99.90;;;;;;4999906;28;20057;-83
2023/04/18 15:27:55;;;;;;;6.57;5.97;;;14.80;99.90;;;;;;4986995;28;20112;-81
2023/04/18 15:30:21;;;;;;;6.65;6.00;;;15.50;99.90;;;;;;4999285;28;20045;-82
2023/04/18 15:32:47;;;;;;;6.28;5.68;;;14.70;99.90;;;;;;5024062;28;20128;-88
2023/04/18 15:35:12;;;;;;;8.05;5.63;;;15.90;99.90;;;;;;4985909;28;20141;-87
2023/04/18 15:37:38;;;;;;;6.95;5.53;;;15.90;99.90;;;;;;4988595;28;20052;-84
2023/04/18 15:40:08;;;;;;;6.13;5.50;;;14.60;99.90;;;;;;5023007;28;20132;-87
2023/04/18 15:42:34;;;;;;;9.02;5.20;;;;;;;;;;4989330;28;20081;-90
2023/04/18 15:44:59;;;;;;;10.02;6.25;;;14.40;99.90;;;;;;4997412;28;20594;-89
2023/04/18 15:47:26;;;;;;;6.13;5.32;;;;;;;;;;5020427;28;20123;-88
2023/04/18 15:49:52;;;;;;;7.45;5.20;;;14.40;99.90;;;;;;5013476;28;20053;-90
2023/04/18 15:52:42;;;;;;;6.25;5.40;;;16.00;99.90;;;;;;5013318;28;20050;-86
2023/04/18 15:55:39;;;;;;;5.45;4.90;;;14.80;99.90;;;;;;5015724;28;20058;-88
2023/04/18 15:58:20;;;;;;;11.45;5.70;;;14.10;99.90;;;;;;5001516;28;20109;-90
2023/04/18 16:00:50;;;;;;;5.70;4.90;;;14.10;99.90;;;;;;5016040;28;20054;-87
2023/04/18 16:03:18;;;;;;;6.25;4.68;;;14.00;99.90;;;;;;5016608;28;20057;-86
2023/04/18 16:05:43;;;;;;;6.97;4.75;;;14.00;99.90;;;;;;4993581;28;20132;-88
2023/04/18 16:08:09;;;;;;;6.97;4.75;;;16.10;99.90;;;;;;5005259;28;20120;-83
2023/04/18 16:10:36;;;;;;;5.95;5.22;;;15.90;99.90;;;;;;5016235;28;20045;-86
2023/04/18 16:13:02;;;;;;;9.73;5.10;;;14.00;99.90;;;;;;5014270;28;20290;-84
2023/04/18 16:15:31;;;;;;;5.53;5.03;;;14.00;99.90;;;;;;5029003;28;20076;-80
2023/04/18 16:17:58;;;;;;;6.60;5.03;;;13.90;99.90;;;;;;5011474;28;20155;-82
2023/04/18 16:20:25;;;;;;;7.22;4.47;;;13.90;99.90;;;;;;5026827;28;20081;-84
2023/04/18 16:22:51;;;;;;;6.65;4.80;;;15.70;99.90;;;;;;4995097;28;20033;-80
2023/04/18 16:25:17;;;;;;;17.50;12.52;;;13.80;99.90;;;;;;5007309;28;20050;-82
2023/04/18 16:27:44;;;;;;;6.50;4.15;;;15.50;99.90;;;;;;4991138;28;20042;-84
2023/04/18 16:30:10;;;;;;;5.13;4.70;;;13.80;99.90;;;;;;4994454;28;20112;-78
2023/04/18 16:32:39;;;;;;;8.40;4.68;;;13.70;99.90;;;;;;4988845;28;20040;-84
2023/04/18 16:35:06;;;;;;;6.75;5.05;;;13.60;99.90;;;;;;4969199;28;20053;-83
2023/04/18 16:37:32;;;;;;;7.93;4.67;;;13.70;99.90;;;;;;4675178;28;9999865;-88
2023/04/18 16:40:01;;;;;;;7.97;4.90;;;15.60;99.90;;;;;;5021086;28;20511;-86
2023/04/18 16:42:28;;;;;;;7.18;6.40;;;13.70;99.90;;;;;;4993694;28;20067;-86
2023/04/18 16:44:56;;;;;;;7.90;5.38;;;13.30;99.90;;;;;;4976119;28;20731;-86
2023/04/18 16:47:22;;;;;;;6.82;5.07;;;13.40;99.90;;;;;;4987513;28;20042;-88
2023/04/18 16:50:21;;;;;;;6.63;5.03;;;14.00;99.90;;;;;;4994129;28;20125;-87
2023/04/18 16:52:53;;;;;;;5.60;5.10;;;13.30;99.90;;;;;;4987587;28;20057;-88
2023/04/18 16:55:51;;;;;;;;;;;;;;;;;;;;;
2023/04/18 16:58:37;;;;;;;8.55;5.00;;;13.10;99.90;;;;;;4988789;28;20533;-85
2023/04/18 17:01:09;;;;;;;6.80;5.05;;;11.40;99.90;;;;;;4965904;28;20133;-86
2023/04/18 17:04:36;;;;;;;7.43;5.00;;;13.10;99.90;;;;;;4978039;28;20056;-86
2023/04/18 18:03:00;;;;;;;5.70;4.97;;;11.80;99.90;;;;;;5002524;28;20120;-83
2023/04/18 19:15:27;;;;;;;12.23;8.75;;;10.70;99.90;;;;;;5014159;28;20931;-83
2023/04/18 19:17:55;;;;;;;9.95;8.18;;;10.60;99.90;;;;;;5010042;28;20077;-79
2023/04/18 19:20:23;;;;;;;14.32;9.88;;;10.60;99.90;;;;;;4983516;28;20081;-84
2023/04/18 19:22:54;;;;;;;11.07;8.98;;;10.50;99.90;;;;;;5004286;28;20064;-85
2023/04/18 19:25:20;;;;;;;12.20;8.90;;;10.50;99.90;;;;;;5003915;28;20058;-77
2023/04/18 19:27:46;;;;;;;7.57;6.72;;;10.50;99.90;;;;;;5024911;28;20451;-84
2023/04/18 19:31:13;;;;;;;10.32;7.45;;;13.20;99.90;;;;;;5016802;28;20054;-85
2023/04/18 19:38:01;;;;;;;9.18;7.65;;;10.50;99.90;;;;;;4951199;28;20042;-79
2023/04/18 19:44:53;;;;;;;15.68;10.50;;;10.40;99.90;;;;;;4952965;28;20092;-86
2023/04/18 20:14:23;;;;;;;9.70;7.82;;;10.20;99.90;;;;;;4842422;29;20097;-85
